createdAt,value
2019-06-27T00:01:08.498Z,98687.51
2019-06-27T00:03:36.874Z,98685.98
2019-06-27T00:06:05.397Z,98686.81
2019-06-27T00:08:33.785Z,98682.70
2019-06-27T00:11:02.468Z,98683.75
2019-06-27T00:13:30.848Z,98685.15
2019-06-27T00:15:59.261Z,98678.17
2019-06-27T00:18:27.638Z,98683.11
2019-06-27T00:20:57.601Z,98680.14
2019-06-27T00:23:25.919Z,98678.05
2019-06-27T00:25:54.213Z,98682.09
2019-06-27T00:28:22.725Z,98678.29
2019-06-27T00:30:51.047Z,98680.75
2019-06-27T00:33:19.375Z,98680.73
2019-06-27T00:35:48.079Z,98678.80
2019-06-27T00:38:16.403Z,98678.80
2019-06-27T00:40:45.034Z,98679.40
2019-06-27T00:43:13.732Z,98678.00
2019-06-27T00:45:42.297Z,98674.05
2019-06-27T00:48:10.992Z,98677.19
2019-06-27T00:50:39.684Z,98670.77
2019-06-27T00:53:08.062Z,98672.63
2019-06-27T00:55:36.389Z,98670.95
2019-06-27T00:58:05.119Z,98676.59
2019-06-27T01:00:33.449Z,98680.19
2019-06-27T01:03:02.106Z,98667.27
2019-06-27T01:05:30.798Z,98676.18
2019-06-27T01:07:59.170Z,98672.42
2019-06-27T01:10:27.638Z,98672.02
2019-06-27T01:12:55.945Z,98672.34
2019-06-27T01:15:24.344Z,98668.61
2019-06-27T01:17:52.629Z,98665.41
2019-06-27T01:20:21.033Z,98660.76
2019-06-27T01:22:49.429Z,98654.34
2019-06-27T01:25:17.832Z,98660.89
2019-06-27T01:27:46.216Z,98657.06
2019-06-27T01:30:15.853Z,98657.34
2019-06-27T01:32:44.643Z,98662.57
2019-06-27T01:35:13.210Z,98667.22
2019-06-27T01:37:41.543Z,98663.16
2019-06-27T01:40:11.789Z,98670.30
2019-06-27T01:42:40.129Z,98668.02
2019-06-27T01:45:10.723Z,98666.71
2019-06-27T01:47:39.124Z,98670.47
2019-06-27T01:50:07.508Z,98663.25
2019-06-27T01:52:35.852Z,98667.13
2019-06-27T01:55:06.422Z,98666.45
2019-06-27T01:57:45.987Z,98667.03
2019-06-27T02:00:09.226Z,98673.77
2019-06-27T02:02:37.655Z,98672.45
2019-06-27T02:05:07.795Z,98669.19
2019-06-27T02:07:36.348Z,98672.06
2019-06-27T02:10:09.203Z,98673.69
2019-06-27T02:12:37.782Z,98671.79
2019-06-27T02:15:07.845Z,98671.38
2019-06-27T02:17:36.202Z,98676.20
2019-06-27T02:20:07.233Z,98668.69
2019-06-27T02:22:35.539Z,98670.61
2019-06-27T02:25:05.706Z,98675.80
2019-06-27T02:27:34.007Z,98673.09
2019-06-27T02:30:02.416Z,98678.51
2019-06-27T02:32:31.102Z,98679.58
2019-06-27T02:34:59.776Z,98676.92
2019-06-27T02:37:28.561Z,98675.78
2019-06-27T02:39:57.017Z,98674.82
2019-06-27T02:42:25.345Z,98674.60
2019-06-27T02:44:54.030Z,98680.97
2019-06-27T02:47:23.530Z,98683.48
2019-06-27T02:49:51.908Z,98670.33
2019-06-27T02:52:20.232Z,98677.16
2019-06-27T02:54:48.568Z,98682.22
2019-06-27T02:57:16.866Z,98680.12
2019-06-27T02:59:45.193Z,98686.11
2019-06-27T03:02:13.569Z,98680.00
2019-06-27T03:04:42.001Z,98689.14
2019-06-27T03:07:10.385Z,98684.84
2019-06-27T03:09:38.777Z,98688.84
2019-06-27T03:12:07.093Z,98692.44
2019-06-27T03:14:35.497Z,98687.44
2019-06-27T03:17:04.107Z,98693.30
2019-06-27T03:19:32.470Z,98691.83
2019-06-27T03:22:05.346Z,98692.41
2019-06-27T03:24:30.874Z,98692.70
2019-06-27T03:26:59.202Z,98690.78
2019-06-27T03:29:27.878Z,98685.15
2019-06-27T03:31:56.227Z,98690.73
2019-06-27T03:34:24.861Z,98684.21
2019-06-27T03:36:53.513Z,98689.95
2019-06-27T03:39:21.902Z,98692.09
2019-06-27T03:41:50.586Z,98691.39
2019-06-27T03:44:18.905Z,98686.62
2019-06-27T03:46:47.556Z,98683.08
2019-06-27T03:49:16.256Z,98690.86
2019-06-27T03:51:44.933Z,98693.62
2019-06-27T03:54:13.273Z,98695.75
2019-06-27T03:56:41.658Z,98696.44
2019-06-27T03:59:12.791Z,98699.23
2019-06-27T04:01:40.021Z,98694.43
2019-06-27T04:04:08.341Z,98696.27
2019-06-27T04:06:36.964Z,98693.70
2019-06-27T04:09:05.934Z,98688.73
2019-06-27T04:11:34.325Z,98687.38
2019-06-27T04:14:02.656Z,98686.94
2019-06-27T04:16:31.029Z,98681.94
2019-06-27T04:18:59.600Z,98681.27
2019-06-27T04:21:27.934Z,98687.17
2019-06-27T04:23:56.235Z,98683.73
2019-06-27T04:26:24.537Z,98683.07
2019-06-27T04:28:52.833Z,98685.03
2019-06-27T04:31:21.604Z,98681.34
2019-06-27T04:33:49.979Z,98681.69
2019-06-27T04:36:18.384Z,98675.89
2019-06-27T04:38:46.685Z,98681.84
2019-06-27T04:41:15.022Z,98681.81
2019-06-27T04:43:43.395Z,98668.20
2019-06-27T04:46:12.102Z,98674.48
2019-06-27T04:48:40.407Z,98675.52
2019-06-27T04:51:08.705Z,98672.94
2019-06-27T04:53:37.200Z,98681.78
2019-06-27T04:56:05.514Z,98679.56
2019-06-27T04:58:33.830Z,98678.22
2019-06-27T05:01:02.139Z,98674.69
2019-06-27T05:03:30.471Z,98673.59
2019-06-27T05:05:58.846Z,98659.22
2019-06-27T05:08:27.253Z,98659.34
2019-06-27T05:10:55.595Z,98650.38
2019-06-27T05:13:23.982Z,98648.12
2019-06-27T05:15:52.300Z,98656.75
2019-06-27T05:18:20.596Z,98656.09
2019-06-27T05:20:48.906Z,98667.58
2019-06-27T05:23:17.265Z,98671.03
2019-06-27T05:25:45.577Z,98674.87
2019-06-27T05:28:13.884Z,98667.83
2019-06-27T05:30:42.205Z,98667.13
2019-06-27T05:33:10.630Z,98664.77
2019-06-27T05:35:38.963Z,98673.59
2019-06-27T05:38:07.266Z,98670.88
2019-06-27T05:40:35.782Z,98674.67
2019-06-27T05:43:04.465Z,98683.88
2019-06-27T05:45:32.861Z,98677.97
2019-06-27T05:48:01.199Z,98675.78
2019-06-27T05:50:29.494Z,98672.52
2019-06-27T05:52:57.801Z,98670.81
2019-06-27T05:55:26.093Z,98668.38
2019-06-27T05:57:54.590Z,98675.42
2019-06-27T06:00:28.977Z,98673.33
2019-06-27T06:02:53.488Z,98682.09
2019-06-27T06:05:21.810Z,98678.02
2019-06-27T06:07:50.129Z,98673.12
2019-06-27T06:10:18.812Z,98673.58
2019-06-27T06:12:47.203Z,98677.03
2019-06-27T06:15:15.581Z,98683.88
2019-06-27T06:17:43.897Z,98682.59
2019-06-27T06:20:13.657Z,98680.27
2019-06-27T06:22:41.930Z,98679.98
2019-06-27T06:25:10.751Z,98681.86
2019-06-27T06:27:39.053Z,98679.66
2019-06-27T06:30:09.042Z,98679.02
2019-06-27T06:32:37.385Z,98684.31
2019-06-27T06:35:07.258Z,98681.33
2019-06-27T06:37:35.633Z,98683.23
2019-06-27T06:40:05.395Z,98676.88
2019-06-27T06:42:33.694Z,98667.92
2019-06-27T06:45:02.289Z,98667.19
2019-06-27T06:47:30.937Z,98670.40
2019-06-27T06:49:59.523Z,98662.23
2019-06-27T06:52:28.273Z,98669.16
2019-06-27T06:54:56.659Z,98669.42
2019-06-27T06:57:25.208Z,98667.55
2019-06-27T06:59:53.818Z,98659.28
2019-06-27T07:02:22.182Z,98657.98
2019-06-27T07:04:50.500Z,98659.42
2019-06-27T07:07:18.840Z,98664.19
2019-06-27T07:09:47.203Z,98659.97
2019-06-27T07:12:15.527Z,98662.33
2019-06-27T07:14:43.828Z,98662.50
2019-06-27T07:17:12.499Z,98661.98
2019-06-27T07:19:42.113Z,98651.77
2019-06-27T07:22:10.804Z,98665.65
2019-06-27T07:24:39.294Z,98667.06
2019-06-27T07:27:07.657Z,98666.05
2019-06-27T07:29:35.946Z,98658.06
2019-06-27T07:32:04.269Z,98660.09
2019-06-27T07:34:32.548Z,98660.56
2019-06-27T07:37:01.287Z,98657.63
2019-06-27T07:39:29.627Z,98651.48
2019-06-27T07:41:57.918Z,98653.23
2019-06-27T07:44:26.315Z,98651.87
2019-06-27T07:46:54.674Z,98661.77
2019-06-27T07:49:23.307Z,98649.73
2019-06-27T07:51:51.991Z,98653.24
2019-06-27T07:54:20.311Z,98659.13
2019-06-27T07:56:48.615Z,98650.59
2019-06-27T07:59:17.238Z,98658.20
2019-06-27T08:01:45.555Z,98654.66
2019-06-27T08:04:13.853Z,98654.31
2019-06-27T08:06:42.501Z,98654.23
2019-06-27T08:09:10.794Z,98650.34
2019-06-27T08:11:39.551Z,98654.97
2019-06-27T08:14:07.852Z,98657.07
2019-06-27T08:16:36.175Z,98662.30
2019-06-27T08:19:04.543Z,98659.68
2019-06-27T08:21:32.910Z,98657.05
2019-06-27T08:24:01.717Z,98656.18
2019-06-27T08:26:30.088Z,98658.23
2019-06-27T08:28:58.752Z,98652.03
2019-06-27T08:31:27.093Z,98650.44
2019-06-27T08:33:55.387Z,98638.01
2019-06-27T08:36:24.087Z,98650.68
2019-06-27T08:38:52.505Z,98645.30
2019-06-27T08:41:20.788Z,98655.53
2019-06-27T08:43:49.177Z,98647.13
2019-06-27T08:46:17.539Z,98653.82
2019-06-27T08:48:45.864Z,98653.00
2019-06-27T08:51:14.170Z,98652.36
2019-06-27T08:53:42.568Z,98651.47
2019-06-27T08:56:10.895Z,98651.11
2019-06-27T08:58:39.221Z,98651.04
2019-06-27T09:01:07.719Z,98649.61
2019-06-27T09:03:36.090Z,98648.69
2019-06-27T09:06:04.478Z,98635.91
2019-06-27T09:08:33.159Z,98653.16
2019-06-27T09:11:01.508Z,98648.20
2019-06-27T09:13:29.955Z,98645.80
2019-06-27T09:15:58.623Z,98645.80
2019-06-27T09:18:26.929Z,98632.63
2019-06-27T09:20:55.581Z,98636.45
2019-06-27T09:23:23.969Z,98635.39
2019-06-27T09:25:52.268Z,98637.09
2019-06-27T09:28:20.601Z,98637.47
2019-06-27T09:30:48.917Z,98636.32
2019-06-27T09:33:17.240Z,98636.32
2019-06-27T09:35:45.547Z,98640.78
2019-06-27T09:38:13.947Z,98637.84
2019-06-27T09:40:42.322Z,98646.38
2019-06-27T09:43:10.773Z,98638.51
2019-06-27T09:45:39.195Z,98637.06
2019-06-27T09:48:07.877Z,98640.31
2019-06-27T09:50:36.170Z,98633.34
2019-06-27T09:53:04.652Z,98636.24
2019-06-27T09:55:33.039Z,98637.36
2019-06-27T09:58:01.345Z,98627.14
2019-06-27T10:00:30.432Z,98627.80
2019-06-27T10:02:58.739Z,98628.88
2019-06-27T10:05:27.057Z,98632.75
2019-06-27T10:07:55.352Z,98633.52
2019-06-27T10:10:23.773Z,98626.45
2019-06-27T10:12:52.194Z,98633.38
2019-06-27T10:15:20.600Z,98621.70
2019-06-27T10:17:49.281Z,98616.39
2019-06-27T10:20:17.919Z,98622.05
2019-06-27T10:22:46.653Z,98612.00
2019-06-27T10:25:15.024Z,98618.21
2019-06-27T10:27:43.362Z,98602.30
2019-06-27T10:30:13.656Z,98605.86
2019-06-27T10:32:57.795Z,98602.98
2019-06-27T10:35:12.176Z,98602.23
2019-06-27T10:37:40.745Z,98595.37
2019-06-27T10:40:10.052Z,98601.93
2019-06-27T10:42:38.368Z,98588.60
2019-06-27T10:45:08.004Z,98592.59
2019-06-27T10:47:36.465Z,98591.55
2019-06-27T10:50:06.308Z,98591.70
2019-06-27T10:52:34.720Z,98589.80
2019-06-27T10:55:03.386Z,98588.58
2019-06-27T10:57:31.691Z,98585.89
2019-06-27T11:00:00.090Z,98568.19
2019-06-27T11:02:28.391Z,98567.47
2019-06-27T11:04:56.781Z,98557.17
2019-06-27T11:07:25.216Z,98547.62
2019-06-27T11:09:53.899Z,98550.88
2019-06-27T11:12:22.591Z,98552.09
2019-06-27T11:14:59.058Z,98549.95
2019-06-27T11:17:21.307Z,98544.30
2019-06-27T11:19:52.598Z,98547.79
2019-06-27T11:22:19.905Z,98541.36
2019-06-27T11:24:48.281Z,98541.98
2019-06-27T11:27:16.600Z,98537.75
2019-06-27T11:29:45.011Z,98524.80
2019-06-27T11:32:13.392Z,98512.93
2019-06-27T11:34:41.683Z,98518.12
2019-06-27T11:37:10.326Z,98521.41
2019-06-27T11:39:38.588Z,98545.49
2019-06-27T11:42:06.928Z,98518.05
2019-06-27T11:44:35.325Z,98524.66
2019-06-27T11:47:03.628Z,98525.51
2019-06-27T11:49:32.394Z,98521.66
2019-06-27T11:52:00.700Z,98516.98
2019-06-27T11:54:29.036Z,98522.70
2019-06-27T11:56:57.330Z,98529.59
2019-06-27T11:59:25.649Z,98538.59
2019-06-27T12:01:53.961Z,98546.81
2019-06-27T12:04:22.344Z,98526.11
2019-06-27T12:06:50.648Z,98517.81
2019-06-27T12:09:18.980Z,98506.75
2019-06-27T12:11:47.282Z,98508.91
2019-06-27T12:14:15.663Z,98494.41
2019-06-27T12:16:44.121Z,98502.48
2019-06-27T12:19:12.420Z,98503.74
2019-06-27T12:21:40.740Z,98496.61
2019-06-27T12:24:09.084Z,98498.97
2019-06-27T12:26:37.404Z,98485.20
2019-06-27T12:29:05.781Z,98474.14
2019-06-27T12:31:34.377Z,98462.21
2019-06-27T12:34:07.154Z,98460.27
2019-06-27T12:36:33.395Z,98459.34
2019-06-27T12:39:01.697Z,98449.91
2019-06-27T12:41:30.014Z,98438.55
2019-06-27T12:43:58.420Z,98432.31
2019-06-27T12:46:27.132Z,98435.58
2019-06-27T12:48:55.572Z,98429.42
2019-06-27T12:51:23.861Z,98418.22
2019-06-27T12:53:55.555Z,98430.41
2019-06-27T12:56:22.499Z,98451.57
2019-06-27T12:58:51.191Z,98457.16
2019-06-27T13:01:19.503Z,98444.98
2019-06-27T13:03:47.820Z,98460.04
2019-06-27T13:06:16.190Z,98450.02
2019-06-27T13:08:44.561Z,98446.34
2019-06-27T13:11:12.887Z,98475.39
2019-06-27T13:13:41.261Z,98517.22
2019-06-27T13:16:09.569Z,98483.81
2019-06-27T13:18:37.934Z,98476.06
2019-06-27T13:21:06.256Z,98488.67
2019-06-27T13:23:34.909Z,98481.95
2019-06-27T13:26:03.220Z,98482.45
2019-06-27T13:28:31.523Z,98469.66
2019-06-27T13:30:59.837Z,98478.11
2019-06-27T13:33:28.146Z,98462.56
2019-06-27T13:35:56.508Z,98463.53
2019-06-27T13:38:24.834Z,98471.49
2019-06-27T13:40:53.197Z,98467.85
2019-06-27T13:43:21.576Z,98476.79
2019-06-27T13:45:49.875Z,98480.30
2019-06-27T13:48:18.198Z,98477.28
2019-06-27T13:50:46.497Z,98465.74
2019-06-27T13:53:15.196Z,98451.51
2019-06-27T13:55:43.795Z,98450.22
2019-06-27T13:58:12.376Z,98443.73
2019-06-27T14:00:45.816Z,98451.93
2019-06-27T14:03:14.521Z,98447.09
2019-06-27T14:05:42.909Z,98446.47
2019-06-27T14:08:11.272Z,98451.80
2019-06-27T14:10:40.171Z,98444.27
2019-06-27T14:13:08.466Z,98424.13
2019-06-27T14:15:37.168Z,98427.55
2019-06-27T14:18:05.539Z,98426.83
2019-06-27T14:20:33.860Z,98436.50
2019-06-27T14:23:02.245Z,98435.62
2019-06-27T14:25:30.619Z,98426.59
2019-06-27T14:27:59.026Z,98424.22
2019-06-27T14:30:27.864Z,98430.20
2019-06-27T14:32:56.157Z,98439.11
2019-06-27T14:35:24.830Z,98442.91
2019-06-27T14:37:53.209Z,98428.45
2019-06-27T14:40:23.181Z,98425.89
2019-06-27T14:42:51.826Z,98425.93
2019-06-27T14:45:20.256Z,98423.23
2019-06-27T14:47:48.615Z,98424.80
2019-06-27T14:50:16.983Z,98437.60
2019-06-27T14:52:48.693Z,98446.09
2019-06-27T14:55:17.128Z,98449.24
2019-06-27T14:57:45.451Z,98435.50
2019-06-27T15:00:13.884Z,98435.61
2019-06-27T15:02:42.209Z,98442.69
2019-06-27T15:05:11.357Z,98425.73
2019-06-27T15:07:39.725Z,98427.12
2019-06-27T15:10:08.713Z,98426.59
2019-06-27T15:12:37.287Z,98427.38
2019-06-27T15:15:06.722Z,98422.09
2019-06-27T15:17:35.064Z,98426.27
2019-06-27T15:20:06.994Z,98425.17
2019-06-27T15:22:35.366Z,98432.25
2019-06-27T15:25:05.629Z,98441.93
2019-06-27T15:27:33.920Z,98448.56
2019-06-27T15:30:02.718Z,98453.75
2019-06-27T15:32:31.478Z,98453.83
2019-06-27T15:34:59.891Z,98453.83
2019-06-27T15:37:28.533Z,98436.67
2019-06-27T15:39:57.199Z,98435.98
2019-06-27T15:42:26.198Z,98427.19
2019-06-27T15:44:54.782Z,98441.59
2019-06-27T15:47:23.469Z,98444.34
2019-06-27T15:49:51.842Z,98446.92
2019-06-27T15:52:20.311Z,98446.32
2019-06-27T15:54:48.609Z,98447.48
2019-06-27T15:57:16.930Z,98453.35
2019-06-27T15:59:45.225Z,98454.11
2019-06-27T16:02:13.864Z,98462.33
2019-06-27T16:04:42.503Z,98450.25
2019-06-27T16:07:10.891Z,98455.34
2019-06-27T16:09:39.288Z,98452.52
2019-06-27T16:12:07.924Z,98449.78
2019-06-27T16:14:36.244Z,98450.70
2019-06-27T16:17:04.609Z,98441.26
2019-06-27T16:19:33.017Z,98437.02
2019-06-27T16:22:01.392Z,98439.59
2019-06-27T16:24:30.049Z,98441.39
2019-06-27T16:26:58.304Z,98435.72
2019-06-27T16:29:26.687Z,98426.72
2019-06-27T16:31:54.993Z,98424.27
2019-06-27T16:34:23.639Z,98418.44
2019-06-27T16:36:52.329Z,98426.45
2019-06-27T16:39:20.712Z,98434.57
2019-06-27T16:41:49.427Z,98606.45
2019-06-27T16:44:17.713Z,98765.11
2019-06-27T16:46:46.030Z,98905.45
2019-06-27T16:49:14.322Z,98980.84
2019-06-27T16:51:42.648Z,99018.05
2019-06-27T16:54:11.323Z,98986.13
2019-06-27T16:56:39.715Z,98940.59
2019-06-27T16:59:08.103Z,98875.55
2019-06-27T17:01:36.399Z,98791.48
2019-06-27T17:04:05.148Z,98703.88
2019-06-27T17:06:42.223Z,98632.33
2019-06-27T17:09:04.260Z,98580.12
2019-06-27T17:11:32.675Z,98537.27
2019-06-27T17:14:01.577Z,98508.53
2019-06-27T17:16:29.912Z,98479.67
2019-06-27T17:18:58.252Z,98466.08
2019-06-27T17:21:26.575Z,98452.52
2019-06-27T17:23:54.886Z,98454.23
2019-06-27T17:26:23.276Z,98451.13
2019-06-27T17:28:51.587Z,98442.03
2019-06-27T17:31:19.910Z,98450.28
2019-06-27T17:33:48.277Z,98453.02
2019-06-27T17:36:16.616Z,98453.50
2019-06-27T17:38:44.920Z,98450.25
2019-06-27T17:41:13.309Z,98446.45
2019-06-27T17:43:41.723Z,98448.74
2019-06-27T17:46:10.085Z,98440.84
2019-06-27T17:48:38.677Z,98441.83
2019-06-27T17:51:08.159Z,98436.67
2019-06-27T17:53:36.979Z,98433.88
2019-06-27T17:56:05.350Z,98435.39
2019-06-27T17:58:33.667Z,98442.91
2019-06-27T18:01:02.367Z,98438.69
2019-06-27T18:03:31.016Z,98449.75
2019-06-27T18:05:59.312Z,98452.73
2019-06-27T18:08:27.638Z,98454.14
2019-06-27T18:10:56.267Z,98452.31
2019-06-27T18:13:24.967Z,98454.83
2019-06-27T18:15:53.266Z,98459.39
2019-06-27T18:18:21.573Z,98456.87
2019-06-27T18:20:49.903Z,98452.08
2019-06-27T18:23:18.191Z,98452.45
2019-06-27T18:25:46.536Z,98454.56
2019-06-27T18:28:15.248Z,98463.19
2019-06-27T18:30:43.920Z,98454.30
2019-06-27T18:33:12.228Z,98458.97
2019-06-27T18:35:40.555Z,98461.87
2019-06-27T18:38:08.867Z,98458.60
2019-06-27T18:40:37.581Z,98459.37
2019-06-27T18:43:05.865Z,98457.88
2019-06-27T18:45:34.607Z,98455.18
2019-06-27T18:48:02.937Z,98457.88
2019-06-27T18:50:31.244Z,98462.04
2019-06-27T18:52:59.852Z,98462.81
2019-06-27T18:55:28.570Z,98463.31
2019-06-27T18:57:56.893Z,98467.70
2019-06-27T19:00:25.731Z,98470.13
2019-06-27T19:02:54.057Z,98472.23
2019-06-27T19:05:22.435Z,98475.74
2019-06-27T19:07:50.936Z,98475.33
2019-06-27T19:10:19.367Z,98477.43
2019-06-27T19:12:48.107Z,98479.72
2019-06-27T19:15:16.564Z,98491.73
2019-06-27T19:17:44.846Z,98492.28
2019-06-27T19:20:15.764Z,98486.47
2019-06-27T19:23:01.883Z,98498.19
2019-06-27T19:25:34.603Z,98502.75
2019-06-27T19:28:03.076Z,98510.02
2019-06-27T19:30:32.642Z,98514.98
2019-06-27T19:33:00.959Z,98507.63
2019-06-27T19:35:29.282Z,98509.98
2019-06-27T19:38:02.489Z,98515.27
2019-06-27T19:40:27.759Z,98511.83
2019-06-27T19:42:56.123Z,98516.23
2019-06-27T19:45:24.568Z,98521.87
2019-06-27T19:47:53.029Z,98525.70
2019-06-27T19:50:21.425Z,98524.90
2019-06-27T19:52:49.725Z,98530.65
2019-06-27T19:55:18.095Z,98534.20
2019-06-27T19:57:46.418Z,98538.41
2019-06-27T20:00:15.551Z,98536.67
2019-06-27T20:02:43.881Z,98549.77
2019-06-27T20:05:12.255Z,98543.54
2019-06-27T20:07:40.846Z,98553.47
2019-06-27T20:10:11.818Z,98553.19
2019-06-27T20:12:40.405Z,98559.00
2019-06-27T20:15:08.937Z,98558.43
2019-06-27T20:17:37.258Z,98556.78
2019-06-27T20:20:05.833Z,98564.17
2019-06-27T20:22:34.502Z,98561.09
2019-06-27T20:25:02.869Z,98551.72
2019-06-27T20:27:31.567Z,98570.53
2019-06-27T20:30:00.260Z,98570.48
2019-06-27T20:32:28.633Z,98576.37
2019-06-27T20:34:57.336Z,98578.64
2019-06-27T20:37:27.057Z,98574.85
2019-06-27T20:39:55.634Z,98572.42
2019-06-27T20:42:23.936Z,98579.17
2019-06-27T20:44:52.592Z,98583.95
2019-06-27T20:47:21.027Z,98585.22
2019-06-27T20:49:49.350Z,98594.14
2019-06-27T20:52:17.947Z,98595.24
2019-06-27T20:54:46.317Z,98600.55
2019-06-27T20:57:14.638Z,98600.59
2019-06-27T20:59:42.936Z,98597.70
2019-06-27T21:02:11.250Z,98603.34
2019-06-27T21:04:40.063Z,98605.02
2019-06-27T21:07:09.936Z,98611.70
2019-06-27T21:09:38.764Z,98609.20
2019-06-27T21:12:07.079Z,98616.89
2019-06-27T21:14:35.837Z,98616.17
2019-06-27T21:17:04.439Z,98617.80
2019-06-27T21:19:32.743Z,98618.91
2019-06-27T21:22:01.135Z,98627.73
2019-06-27T21:24:29.910Z,98623.47
2019-06-27T21:26:58.577Z,98622.50
2019-06-27T21:29:26.883Z,98634.77
2019-06-27T21:31:55.343Z,98632.95
2019-06-27T21:34:23.641Z,98641.45
2019-06-27T21:36:51.961Z,98652.91
2019-06-27T21:39:20.353Z,98652.28
2019-06-27T21:41:48.804Z,98656.91
2019-06-27T21:44:17.440Z,98662.94
2019-06-27T21:46:46.131Z,98658.53
2019-06-27T21:49:14.453Z,98664.15
2019-06-27T21:51:42.755Z,98659.24
2019-06-27T21:54:11.080Z,98665.86
2019-06-27T21:56:39.383Z,98669.19
2019-06-27T21:59:07.705Z,98668.00
2019-06-27T22:01:36.311Z,98677.86
2019-06-27T22:04:04.962Z,98674.35
2019-06-27T22:06:33.404Z,98678.70
2019-06-27T22:09:01.757Z,98676.22
2019-06-27T22:11:30.140Z,98678.70
2019-06-27T22:13:58.449Z,98680.31
2019-06-27T22:16:27.121Z,98681.22
2019-06-27T22:18:55.496Z,98682.44
2019-06-27T22:21:23.814Z,98684.09
2019-06-27T22:23:52.478Z,98683.92
2019-06-27T22:26:21.223Z,98685.55
2019-06-27T22:28:49.952Z,98696.59
2019-06-27T22:31:18.342Z,98695.31
2019-06-27T22:33:46.715Z,98697.99
2019-06-27T22:36:15.115Z,98702.76
2019-06-27T22:39:01.416Z,98701.84
2019-06-27T22:41:48.070Z,98697.70
2019-06-27T22:44:34.191Z,98708.13
2019-06-27T22:47:20.355Z,98699.88
2019-06-27T22:49:49.437Z,98713.40
2019-06-27T22:52:32.055Z,98703.06
2019-06-27T22:55:05.011Z,98702.50
2019-06-27T22:57:33.617Z,98705.40
2019-06-27T23:00:02.286Z,98697.64
2019-06-27T23:02:30.606Z,98700.77
2019-06-27T23:04:58.909Z,98704.13
2019-06-27T23:07:27.207Z,98706.55
2019-06-27T23:09:57.430Z,98706.49
2019-06-27T23:12:25.835Z,98707.84
2019-06-27T23:14:54.150Z,98702.98
2019-06-27T23:17:22.446Z,98706.13
2019-06-27T23:19:51.086Z,98706.06
2019-06-27T23:22:19.385Z,98704.25
2019-06-27T23:24:49.343Z,98709.66
2019-06-27T23:27:17.638Z,98709.66
2019-06-27T23:29:46.258Z,98714.57
2019-06-27T23:32:14.943Z,98704.53
2019-06-27T23:34:43.251Z,98708.30
2019-06-27T23:37:11.573Z,98709.03
2019-06-27T23:39:39.879Z,98706.16
2019-06-27T23:42:08.199Z,98707.08
2019-06-27T23:44:36.504Z,98706.91
2019-06-27T23:47:04.893Z,98706.66
2019-06-27T23:49:33.185Z,98700.41
2019-06-27T23:52:01.508Z,98708.34
2019-06-27T23:54:29.962Z,98708.62
2019-06-27T23:56:58.546Z,98706.58
2019-06-27T23:59:26.945Z,98699.87
